Minneapolis, Minnesota
Traffic Map
Current Weather Conditions
Minneapolis, Minnesota
Few Clouds
Few Clouds

Feels Like: 9°
Wind Chill: Ceiling: Unl
Heat Index: Visibility: 10mi
Dew Point: Wind: 3mph
Humidity: 74% Direction: 300° (WNW)
Pressure: 29.91in Gusts: 0mph
Raw Report DataKMSP 200853Z 30003KT 10SM FEW050 09/05 A2991 RMK AO2 SLP129 T00940050 51010
Traffic Incident Summary
Active as of:
Severity:
Category:
InformationThere was an issue retrieving the traffic information for this location. Please try a different location or try again shortly.
Advertisements
Track Severe Weather on mobile